sensor_id;sensor_type;location;lat;lon;timestamp;P1;durP1;ratioP1;P2;durP2;ratioP2
37903;SDS011;23738;50.422;18.758;2023-03-26T00:00:23;8.50;;;3.40;;
37903;SDS011;23738;50.422;18.758;2023-03-26T00:02:51;4.20;;;2.00;;
37903;SDS011;23738;50.422;18.758;2023-03-26T00:05:18;3.70;;;2.20;;
37903;SDS011;23738;50.422;18.758;2023-03-26T00:07:46;6.30;;;2.50;;
37903;SDS011;23738;50.422;18.758;2023-03-26T00:10:13;5.00;;;1.80;;
37903;SDS011;23738;50.422;18.758;2023-03-26T00:12:41;4.70;;;2.10;;
37903;SDS011;23738;50.422;18.758;2023-03-26T00:15:09;6.80;;;2.50;;
37903;SDS011;23738;50.422;18.758;2023-03-26T00:17:37;7.60;;;4.00;;
37903;SDS011;23738;50.422;18.758;2023-03-26T00:20:05;7.90;;;3.50;;
37903;SDS011;23738;50.422;18.758;2023-03-26T00:22:34;6.10;;;3.80;;
37903;SDS011;23738;50.422;18.758;2023-03-26T00:25:01;7.80;;;4.40;;
37903;SDS011;23738;50.422;18.758;2023-03-26T00:27:28;9.10;;;3.50;;
37903;SDS011;23738;50.422;18.758;2023-03-26T00:29:55;6.60;;;2.90;;
37903;SDS011;23738;50.422;18.758;2023-03-26T00:32:24;7.80;;;2.50;;
37903;SDS011;23738;50.422;18.758;2023-03-26T00:34:53;4.20;;;2.10;;
37903;SDS011;23738;50.422;18.758;2023-03-26T00:37:20;4.50;;;1.80;;
37903;SDS011;23738;50.422;18.758;2023-03-26T00:39:51;5.80;;;2.90;;
37903;SDS011;23738;50.422;18.758;2023-03-26T00:42:19;5.80;;;3.00;;
37903;SDS011;23738;50.422;18.758;2023-03-26T00:44:46;6.40;;;4.10;;
37903;SDS011;23738;50.422;18.758;2023-03-26T00:47:15;5.90;;;3.30;;
37903;SDS011;23738;50.422;18.758;2023-03-26T00:49:43;4.90;;;2.20;;
37903;SDS011;23738;50.422;18.758;2023-03-26T00:52:11;6.10;;;2.10;;
37903;SDS011;23738;50.422;18.758;2023-03-26T00:54:39;3.30;;;1.90;;
37903;SDS011;23738;50.422;18.758;2023-03-26T00:57:07;3.10;;;1.50;;
37903;SDS011;23738;50.422;18.758;2023-03-26T00:59:35;2.90;;;1.90;;
37903;SDS011;23738;50.422;18.758;2023-03-26T01:02:02;4.80;;;2.10;;
37903;SDS011;23738;50.422;18.758;2023-03-26T01:04:31;6.90;;;1.80;;
37903;SDS011;23738;50.422;18.758;2023-03-26T01:07:00;4.20;;;2.10;;
37903;SDS011;23738;50.422;18.758;2023-03-26T01:09:35;3.70;;;2.10;;
37903;SDS011;23738;50.422;18.758;2023-03-26T01:12:08;4.30;;;2.50;;
37903;SDS011;23738;50.422;18.758;2023-03-26T01:14:38;3.60;;;2.30;;
37903;SDS011;23738;50.422;18.758;2023-03-26T01:17:05;4.60;;;1.90;;
37903;SDS011;23738;50.422;18.758;2023-03-26T01:19:36;4.20;;;2.40;;
37903;SDS011;23738;50.422;18.758;2023-03-26T01:22:11;4.40;;;3.00;;
37903;SDS011;23738;50.422;18.758;2023-03-26T01:24:41;8.10;;;3.40;;
37903;SDS011;23738;50.422;18.758;2023-03-26T01:27:15;5.50;;;2.60;;
37903;SDS011;23738;50.422;18.758;2023-03-26T01:29:52;4.10;;;2.40;;
37903;SDS011;23738;50.422;18.758;2023-03-26T01:32:23;3.90;;;2.30;;
37903;SDS011;23738;50.422;18.758;2023-03-26T01:35:01;4.20;;;3.00;;
37903;SDS011;23738;50.422;18.758;2023-03-26T01:37:40;3.90;;;2.90;;
37903;SDS011;23738;50.422;18.758;2023-03-26T01:40:19;4.60;;;2.70;;
37903;SDS011;23738;50.422;18.758;2023-03-26T01:42:53;4.10;;;2.50;;
37903;SDS011;23738;50.422;18.758;2023-03-26T01:45:27;3.70;;;2.30;;
37903;SDS011;23738;50.422;18.758;2023-03-26T01:47:59;2.90;;;1.80;;
37903;SDS011;23738;50.422;18.758;2023-03-26T01:50:26;3.60;;;2.00;;
37903;SDS011;23738;50.422;18.758;2023-03-26T01:52:54;3.70;;;1.90;;
37903;SDS011;23738;50.422;18.758;2023-03-26T01:55:21;4.70;;;1.90;;
37903;SDS011;23738;50.422;18.758;2023-03-26T01:57:58;4.80;;;2.00;;
37903;SDS011;23738;50.422;18.758;2023-03-26T02:00:33;4.80;;;2.50;;
37903;SDS011;23738;50.422;18.758;2023-03-26T02:03:09;4.30;;;3.10;;
37903;SDS011;23738;50.422;18.758;2023-03-26T02:05:46;4.60;;;3.30;;
37903;SDS011;23738;50.422;18.758;2023-03-26T02:08:19;3.20;;;2.70;;
37903;SDS011;23738;50.422;18.758;2023-03-26T02:10:51;7.40;;;2.80;;
37903;SDS011;23738;50.422;18.758;2023-03-26T02:13:22;4.20;;;2.40;;
37903;SDS011;23738;50.422;18.758;2023-03-26T02:15:54;3.80;;;2.10;;
37903;SDS011;23738;50.422;18.758;2023-03-26T02:18:22;67.10;;;31.10;;
37903;SDS011;23738;50.422;18.758;2023-03-26T02:20:49;7.40;;;4.60;;
37903;SDS011;23738;50.422;18.758;2023-03-26T02:23:18;5.40;;;3.70;;
37903;SDS011;23738;50.422;18.758;2023-03-26T02:25:46;5.50;;;3.10;;
37903;SDS011;23738;50.422;18.758;2023-03-26T02:28:13;5.70;;;3.10;;
37903;SDS011;23738;50.422;18.758;2023-03-26T02:30:41;4.00;;;2.40;;
37903;SDS011;23738;50.422;18.758;2023-03-26T02:33:10;3.70;;;2.30;;
37903;SDS011;23738;50.422;18.758;2023-03-26T02:35:40;3.90;;;1.90;;
37903;SDS011;23738;50.422;18.758;2023-03-26T02:38:10;3.60;;;2.10;;
37903;SDS011;23738;50.422;18.758;2023-03-26T02:40:39;3.70;;;1.60;;
37903;SDS011;23738;50.422;18.758;2023-03-26T02:43:06;3.80;;;2.20;;
37903;SDS011;23738;50.422;18.758;2023-03-26T02:45:34;5.70;;;2.70;;
37903;SDS011;23738;50.422;18.758;2023-03-26T02:48:01;3.40;;;2.40;;
37903;SDS011;23738;50.422;18.758;2023-03-26T02:50:29;7.80;;;2.90;;
37903;SDS011;23738;50.422;18.758;2023-03-26T02:52:57;4.10;;;2.20;;
37903;SDS011;23738;50.422;18.758;2023-03-26T02:55:24;7.10;;;2.60;;
37903;SDS011;23738;50.422;18.758;2023-03-26T02:57:51;3.50;;;2.20;;
37903;SDS011;23738;50.422;18.758;2023-03-26T03:00:19;3.90;;;2.20;;
37903;SDS011;23738;50.422;18.758;2023-03-26T03:02:47;3.70;;;2.20;;
37903;SDS011;23738;50.422;18.758;2023-03-26T03:05:15;4.40;;;2.20;;
37903;SDS011;23738;50.422;18.758;2023-03-26T03:07:43;4.00;;;2.40;;
37903;SDS011;23738;50.422;18.758;2023-03-26T03:10:11;3.10;;;2.10;;
37903;SDS011;23738;50.422;18.758;2023-03-26T03:12:40;4.20;;;2.30;;
37903;SDS011;23738;50.422;18.758;2023-03-26T03:15:08;3.60;;;1.80;;
37903;SDS011;23738;50.422;18.758;2023-03-26T03:17:37;4.50;;;1.90;;
37903;SDS011;23738;50.422;18.758;2023-03-26T03:20:06;3.90;;;1.60;;
37903;SDS011;23738;50.422;18.758;2023-03-26T03:22:34;3.30;;;1.60;;
37903;SDS011;23738;50.422;18.758;2023-03-26T03:25:02;5.50;;;2.40;;
37903;SDS011;23738;50.422;18.758;2023-03-26T03:27:30;2.90;;;1.60;;
37903;SDS011;23738;50.422;18.758;2023-03-26T03:29:57;2.40;;;1.20;;
37903;SDS011;23738;50.422;18.758;2023-03-26T03:32:24;7.10;;;1.60;;
37903;SDS011;23738;50.422;18.758;2023-03-26T03:34:52;2.80;;;1.30;;
37903;SDS011;23738;50.422;18.758;2023-03-26T03:37:19;4.20;;;1.30;;
37903;SDS011;23738;50.422;18.758;2023-03-26T03:39:48;4.50;;;1.80;;
37903;SDS011;23738;50.422;18.758;2023-03-26T03:42:15;2.90;;;1.40;;
37903;SDS011;23738;50.422;18.758;2023-03-26T03:44:42;3.40;;;1.80;;
37903;SDS011;23738;50.422;18.758;2023-03-26T03:47:10;3.90;;;1.80;;
37903;SDS011;23738;50.422;18.758;2023-03-26T03:49:38;4.40;;;2.30;;
37903;SDS011;23738;50.422;18.758;2023-03-26T03:52:06;4.10;;;1.50;;
37903;SDS011;23738;50.422;18.758;2023-03-26T03:54:33;2.90;;;1.30;;
37903;SDS011;23738;50.422;18.758;2023-03-26T03:57:00;3.30;;;1.40;;
37903;SDS011;23738;50.422;18.758;2023-03-26T03:59:28;4.20;;;1.70;;
37903;SDS011;23738;50.422;18.758;2023-03-26T04:01:55;4.20;;;1.50;;
37903;SDS011;23738;50.422;18.758;2023-03-26T04:04:22;3.50;;;1.20;;
37903;SDS011;23738;50.422;18.758;2023-03-26T04:06:50;3.50;;;1.50;;
37903;SDS011;23738;50.422;18.758;2023-03-26T04:09:17;5.80;;;1.30;;
37903;SDS011;23738;50.422;18.758;2023-03-26T04:11:45;4.40;;;1.40;;
37903;SDS011;23738;50.422;18.758;2023-03-26T04:14:12;5.10;;;1.60;;
37903;SDS011;23738;50.422;18.758;2023-03-26T04:16:39;3.40;;;1.30;;
37903;SDS011;23738;50.422;18.758;2023-03-26T04:19:06;5.30;;;1.30;;
37903;SDS011;23738;50.422;18.758;2023-03-26T04:21:33;2.90;;;1.50;;
37903;SDS011;23738;50.422;18.758;2023-03-26T04:24:02;2.20;;;1.60;;
37903;SDS011;23738;50.422;18.758;2023-03-26T04:26:31;3.10;;;1.70;;
37903;SDS011;23738;50.422;18.758;2023-03-26T04:29:01;2.70;;;1.20;;
37903;SDS011;23738;50.422;18.758;2023-03-26T04:31:30;4.30;;;1.30;;
37903;SDS011;23738;50.422;18.758;2023-03-26T04:34:01;4.00;;;1.60;;
37903;SDS011;23738;50.422;18.758;2023-03-26T04:36:32;3.10;;;1.40;;
37903;SDS011;23738;50.422;18.758;2023-03-26T04:39:01;2.90;;;1.40;;
37903;SDS011;23738;50.422;18.758;2023-03-26T04:41:29;4.60;;;1.90;;
37903;SDS011;23738;50.422;18.758;2023-03-26T04:43:57;5.50;;;2.00;;
37903;SDS011;23738;50.422;18.758;2023-03-26T04:46:26;4.50;;;1.90;;
37903;SDS011;23738;50.422;18.758;2023-03-26T04:48:58;3.20;;;1.50;;
37903;SDS011;23738;50.422;18.758;2023-03-26T04:51:28;4.70;;;1.70;;
37903;SDS011;23738;50.422;18.758;2023-03-26T04:54:03;3.20;;;1.40;;
37903;SDS011;23738;50.422;18.758;2023-03-26T04:56:33;5.20;;;1.70;;
37903;SDS011;23738;50.422;18.758;2023-03-26T04:59:08;7.90;;;1.90;;
37903;SDS011;23738;50.422;18.758;2023-03-26T05:01:39;3.70;;;2.20;;
37903;SDS011;23738;50.422;18.758;2023-03-26T05:04:10;4.00;;;1.80;;
37903;SDS011;23738;50.422;18.758;2023-03-26T05:06:38;4.40;;;1.70;;
37903;SDS011;23738;50.422;18.758;2023-03-26T05:09:06;4.40;;;2.00;;
37903;SDS011;23738;50.422;18.758;2023-03-26T05:11:35;2.40;;;1.30;;
37903;SDS011;23738;50.422;18.758;2023-03-26T05:14:02;5.00;;;1.40;;
37903;SDS011;23738;50.422;18.758;2023-03-26T05:16:30;4.90;;;1.30;;
37903;SDS011;23738;50.422;18.758;2023-03-26T05:18:58;4.00;;;1.70;;
37903;SDS011;23738;50.422;18.758;2023-03-26T05:21:25;5.00;;;1.90;;
37903;SDS011;23738;50.422;18.758;2023-03-26T05:23:52;4.70;;;2.00;;
37903;SDS011;23738;50.422;18.758;2023-03-26T05:26:20;3.20;;;1.30;;
37903;SDS011;23738;50.422;18.758;2023-03-26T05:28:48;3.50;;;1.30;;
37903;SDS011;23738;50.422;18.758;2023-03-26T05:31:17;3.80;;;1.80;;
37903;SDS011;23738;50.422;18.758;2023-03-26T05:33:46;3.20;;;1.70;;
37903;SDS011;23738;50.422;18.758;2023-03-26T05:36:14;4.70;;;3.40;;
37903;SDS011;23738;50.422;18.758;2023-03-26T05:38:42;7.90;;;3.00;;
37903;SDS011;23738;50.422;18.758;2023-03-26T05:41:12;5.90;;;3.10;;
37903;SDS011;23738;50.422;18.758;2023-03-26T05:43:40;4.00;;;2.10;;
37903;SDS011;23738;50.422;18.758;2023-03-26T05:46:09;5.00;;;2.00;;
37903;SDS011;23738;50.422;18.758;2023-03-26T05:48:37;8.50;;;6.50;;
37903;SDS011;23738;50.422;18.758;2023-03-26T05:51:05;8.10;;;7.10;;
37903;SDS011;23738;50.422;18.758;2023-03-26T05:53:33;7.40;;;4.80;;
37903;SDS011;23738;50.422;18.758;2023-03-26T05:56:01;10.20;;;8.90;;
37903;SDS011;23738;50.422;18.758;2023-03-26T05:58:29;11.30;;;10.20;;
37903;SDS011;23738;50.422;18.758;2023-03-26T06:00:58;8.40;;;7.00;;
37903;SDS011;23738;50.422;18.758;2023-03-26T06:03:30;10.50;;;7.10;;
37903;SDS011;23738;50.422;18.758;2023-03-26T06:05:58;9.80;;;7.20;;
37903;SDS011;23738;50.422;18.758;2023-03-26T06:08:25;9.30;;;7.10;;
37903;SDS011;23738;50.422;18.758;2023-03-26T06:10:57;8.60;;;4.40;;
37903;SDS011;23738;50.422;18.758;2023-03-26T06:13:26;5.60;;;4.00;;
37903;SDS011;23738;50.422;18.758;2023-03-26T06:15:53;6.40;;;4.10;;
37903;SDS011;23738;50.422;18.758;2023-03-26T06:18:22;8.50;;;7.60;;
37903;SDS011;23738;50.422;18.758;2023-03-26T06:20:50;5.10;;;3.30;;
37903;SDS011;23738;50.422;18.758;2023-03-26T06:23:18;9.00;;;5.80;;
37903;SDS011;23738;50.422;18.758;2023-03-26T06:25:45;6.20;;;4.70;;
37903;SDS011;23738;50.422;18.758;2023-03-26T06:28:13;6.00;;;4.60;;
37903;SDS011;23738;50.422;18.758;2023-03-26T06:30:40;4.90;;;3.20;;
37903;SDS011;23738;50.422;18.758;2023-03-26T06:33:08;4.20;;;2.80;;
37903;SDS011;23738;50.422;18.758;2023-03-26T06:35:35;3.40;;;2.00;;
37903;SDS011;23738;50.422;18.758;2023-03-26T06:38:03;3.80;;;2.10;;
37903;SDS011;23738;50.422;18.758;2023-03-26T06:40:32;3.70;;;1.20;;
37903;SDS011;23738;50.422;18.758;2023-03-26T06:42:59;3.00;;;1.30;;
37903;SDS011;23738;50.422;18.758;2023-03-26T06:45:26;3.20;;;1.90;;
37903;SDS011;23738;50.422;18.758;2023-03-26T06:47:54;2.60;;;1.60;;
37903;SDS011;23738;50.422;18.758;2023-03-26T06:50:21;4.10;;;1.90;;
37903;SDS011;23738;50.422;18.758;2023-03-26T06:52:51;3.90;;;2.10;;
37903;SDS011;23738;50.422;18.758;2023-03-26T06:55:19;3.90;;;1.90;;
37903;SDS011;23738;50.422;18.758;2023-03-26T06:57:47;4.70;;;2.10;;
37903;SDS011;23738;50.422;18.758;2023-03-26T07:00:16;3.10;;;1.70;;
37903;SDS011;23738;50.422;18.758;2023-03-26T07:02:44;16.20;;;2.20;;
37903;SDS011;23738;50.422;18.758;2023-03-26T07:05:11;4.10;;;1.70;;
37903;SDS011;23738;50.422;18.758;2023-03-26T07:07:39;3.30;;;2.00;;
37903;SDS011;23738;50.422;18.758;2023-03-26T07:10:08;4.80;;;1.70;;
37903;SDS011;23738;50.422;18.758;2023-03-26T07:12:36;3.60;;;1.70;;
37903;SDS011;23738;50.422;18.758;2023-03-26T07:15:04;5.90;;;1.80;;
37903;SDS011;23738;50.422;18.758;2023-03-26T07:17:34;2.70;;;1.40;;
37903;SDS011;23738;50.422;18.758;2023-03-26T07:20:01;4.60;;;2.40;;
37903;SDS011;23738;50.422;18.758;2023-03-26T07:22:30;5.30;;;2.10;;
37903;SDS011;23738;50.422;18.758;2023-03-26T07:24:59;3.50;;;1.50;;
37903;SDS011;23738;50.422;18.758;2023-03-26T07:27:31;4.00;;;1.60;;
37903;SDS011;23738;50.422;18.758;2023-03-26T07:30:10;2.80;;;1.70;;
37903;SDS011;23738;50.422;18.758;2023-03-26T07:32:45;3.70;;;1.60;;
37903;SDS011;23738;50.422;18.758;2023-03-26T07:37:49;3.70;;;1.50;;
37903;SDS011;23738;50.422;18.758;2023-03-26T07:40:36;4.00;;;1.70;;
37903;SDS011;23738;50.422;18.758;2023-03-26T07:43:15;3.10;;;1.60;;
37903;SDS011;23738;50.422;18.758;2023-03-26T07:45:53;2.60;;;1.60;;
37903;SDS011;23738;50.422;18.758;2023-03-26T07:48:22;4.90;;;1.60;;
37903;SDS011;23738;50.422;18.758;2023-03-26T07:50:52;2.80;;;1.70;;
37903;SDS011;23738;50.422;18.758;2023-03-26T07:53:22;2.50;;;1.40;;
37903;SDS011;23738;50.422;18.758;2023-03-26T07:55:51;5.20;;;1.30;;
37903;SDS011;23738;50.422;18.758;2023-03-26T07:58:29;4.80;;;1.50;;
37903;SDS011;23738;50.422;18.758;2023-03-26T08:01:12;4.70;;;1.80;;
37903;SDS011;23738;50.422;18.758;2023-03-26T08:03:51;4.30;;;1.60;;
37903;SDS011;23738;50.422;18.758;2023-03-26T08:06:32;5.00;;;2.00;;
37903;SDS011;23738;50.422;18.758;2023-03-26T08:09:04;4.20;;;1.70;;
37903;SDS011;23738;50.422;18.758;2023-03-26T08:11:39;7.60;;;2.40;;
37903;SDS011;23738;50.422;18.758;2023-03-26T08:17:25;4.30;;;1.90;;
37903;SDS011;23738;50.422;18.758;2023-03-26T08:20:03;4.30;;;2.20;;
37903;SDS011;23738;50.422;18.758;2023-03-26T08:22:41;5.10;;;2.30;;
37903;SDS011;23738;50.422;18.758;2023-03-26T08:25:21;5.80;;;2.20;;
37903;SDS011;23738;50.422;18.758;2023-03-26T08:27:59;7.80;;;4.40;;
37903;SDS011;23738;50.422;18.758;2023-03-26T08:30:33;14.70;;;11.70;;
37903;SDS011;23738;50.422;18.758;2023-03-26T08:33:03;53.70;;;30.30;;
37903;SDS011;23738;50.422;18.758;2023-03-26T08:35:41;164.40;;;70.90;;
37903;SDS011;23738;50.422;18.758;2023-03-26T08:38:09;406.90;;;200.40;;
37903;SDS011;23738;50.422;18.758;2023-03-26T08:40:42;415.90;;;214.40;;
37903;SDS011;23738;50.422;18.758;2023-03-26T08:43:29;125.40;;;58.90;;
37903;SDS011;23738;50.422;18.758;2023-03-26T08:46:16;106.50;;;50.70;;
37903;SDS011;23738;50.422;18.758;2023-03-26T08:52:22;122.70;;;63.30;;
37903;SDS011;23738;50.422;18.758;2023-03-26T08:55:37;91.60;;;51.10;;
37903;SDS011;23738;50.422;18.758;2023-03-26T08:58:24;53.00;;;38.10;;
37903;SDS011;23738;50.422;18.758;2023-03-26T09:04:36;45.90;;;24.30;;
37903;SDS011;23738;50.422;18.758;2023-03-26T09:07:44;15.60;;;11.30;;
37903;SDS011;23738;50.422;18.758;2023-03-26T09:10:45;16.50;;;9.90;;
37903;SDS011;23738;50.422;18.758;2023-03-26T09:19:28;26.50;;;11.40;;
37903;SDS011;23738;50.422;18.758;2023-03-26T09:25:19;52.80;;;20.60;;
37903;SDS011;23738;50.422;18.758;2023-03-26T09:31:09;9.60;;;5.80;;
37903;SDS011;23738;50.422;18.758;2023-03-26T09:33:56;16.30;;;11.10;;
37903;SDS011;23738;50.422;18.758;2023-03-26T09:36:41;7.50;;;4.80;;
37903;SDS011;23738;50.422;18.758;2023-03-26T09:39:25;6.10;;;3.30;;
37903;SDS011;23738;50.422;18.758;2023-03-26T09:42:04;4.90;;;2.60;;
37903;SDS011;23738;50.422;18.758;2023-03-26T09:44:49;6.80;;;3.90;;
37903;SDS011;23738;50.422;18.758;2023-03-26T09:47:39;14.50;;;11.30;;
37903;SDS011;23738;50.422;18.758;2023-03-26T09:50:38;55.70;;;22.90;;
37903;SDS011;23738;50.422;18.758;2023-03-26T09:53:27;19.30;;;12.30;;
37903;SDS011;23738;50.422;18.758;2023-03-26T09:56:20;21.90;;;13.00;;
37903;SDS011;23738;50.422;18.758;2023-03-26T09:59:06;13.00;;;8.90;;
37903;SDS011;23738;50.422;18.758;2023-03-26T10:01:55;42.00;;;16.40;;
37903;SDS011;23738;50.422;18.758;2023-03-26T10:04:32;13.00;;;6.50;;
37903;SDS011;23738;50.422;18.758;2023-03-26T10:07:13;24.90;;;9.20;;
37903;SDS011;23738;50.422;18.758;2023-03-26T10:12:28;5.30;;;2.10;;
37903;SDS011;23738;50.422;18.758;2023-03-26T10:15:08;7.70;;;2.90;;
37903;SDS011;23738;50.422;18.758;2023-03-26T10:17:50;8.20;;;3.90;;
37903;SDS011;23738;50.422;18.758;2023-03-26T10:20:31;7.10;;;4.10;;
37903;SDS011;23738;50.422;18.758;2023-03-26T10:23:14;4.60;;;3.00;;
37903;SDS011;23738;50.422;18.758;2023-03-26T10:25:58;6.30;;;3.30;;
37903;SDS011;23738;50.422;18.758;2023-03-26T10:28:42;9.90;;;6.30;;
37903;SDS011;23738;50.422;18.758;2023-03-26T10:31:32;8.40;;;4.00;;
37903;SDS011;23738;50.422;18.758;2023-03-26T10:34:09;4.60;;;2.00;;
37903;SDS011;23738;50.422;18.758;2023-03-26T10:36:54;29.00;;;10.30;;
37903;SDS011;23738;50.422;18.758;2023-03-26T10:39:36;4.00;;;1.80;;
37903;SDS011;23738;50.422;18.758;2023-03-26T10:42:17;6.30;;;2.10;;
37903;SDS011;23738;50.422;18.758;2023-03-26T15:22:29;4.50;;;2.60;;
37903;SDS011;23738;50.422;18.758;2023-03-26T15:28:27;4.40;;;2.40;;
37903;SDS011;23738;50.422;18.758;2023-03-26T15:40:48;6.40;;;2.90;;
37903;SDS011;23738;50.422;18.758;2023-03-26T15:43:28;6.50;;;2.50;;
37903;SDS011;23738;50.422;18.758;2023-03-26T15:46:52;5.80;;;3.70;;
37903;SDS011;23738;50.422;18.758;2023-03-26T15:49:31;4.40;;;2.80;;
37903;SDS011;23738;50.422;18.758;2023-03-26T15:52:11;7.20;;;3.00;;
37903;SDS011;23738;50.422;18.758;2023-03-26T15:54:52;5.20;;;2.70;;
37903;SDS011;23738;50.422;18.758;2023-03-26T15:57:29;4.30;;;2.10;;
37903;SDS011;23738;50.422;18.758;2023-03-26T16:11:54;9.40;;;5.40;;
37903;SDS011;23738;50.422;18.758;2023-03-26T16:14:40;10.50;;;4.50;;
37903;SDS011;23738;50.422;18.758;2023-03-26T16:31:23;4.80;;;3.00;;
37903;SDS011;23738;50.422;18.758;2023-03-26T16:34:20;5.70;;;3.10;;
37903;SDS011;23738;50.422;18.758;2023-03-26T16:36:55;4.50;;;3.00;;
37903;SDS011;23738;50.422;18.758;2023-03-26T16:39:40;5.70;;;3.40;;
37903;SDS011;23738;50.422;18.758;2023-03-26T16:45:17;7.50;;;3.60;;
37903;SDS011;23738;50.422;18.758;2023-03-26T16:47:59;5.50;;;3.70;;
37903;SDS011;23738;50.422;18.758;2023-03-26T16:50:40;5.50;;;3.70;;
37903;SDS011;23738;50.422;18.758;2023-03-26T16:53:22;7.40;;;3.40;;
37903;SDS011;23738;50.422;18.758;2023-03-26T16:56:05;5.80;;;3.50;;
37903;SDS011;23738;50.422;18.758;2023-03-26T16:58:46;5.40;;;3.30;;
37903;SDS011;23738;50.422;18.758;2023-03-26T17:01:26;4.40;;;3.20;;
37903;SDS011;23738;50.422;18.758;2023-03-26T17:04:03;6.90;;;3.90;;
37903;SDS011;23738;50.422;18.758;2023-03-26T17:06:46;12.00;;;4.10;;
37903;SDS011;23738;50.422;18.758;2023-03-26T17:09:36;5.50;;;3.60;;
37903;SDS011;23738;50.422;18.758;2023-03-26T17:12:18;10.20;;;5.10;;
37903;SDS011;23738;50.422;18.758;2023-03-26T17:15:01;21.40;;;15.00;;
37903;SDS011;23738;50.422;18.758;2023-03-26T17:20:43;8.50;;;5.50;;
37903;SDS011;23738;50.422;18.758;2023-03-26T17:23:28;13.40;;;8.80;;
37903;SDS011;23738;50.422;18.758;2023-03-26T17:26:05;27.20;;;20.00;;
37903;SDS011;23738;50.422;18.758;2023-03-26T17:28:53;31.10;;;17.70;;
37903;SDS011;23738;50.422;18.758;2023-03-26T17:31:39;16.00;;;12.20;;
37903;SDS011;23738;50.422;18.758;2023-03-26T17:34:33;21.60;;;14.80;;
37903;SDS011;23738;50.422;18.758;2023-03-26T17:46:29;41.00;;;21.70;;
37903;SDS011;23738;50.422;18.758;2023-03-26T17:49:05;38.60;;;20.80;;
37903;SDS011;23738;50.422;18.758;2023-03-26T17:51:45;61.70;;;28.10;;
37903;SDS011;23738;50.422;18.758;2023-03-26T17:54:23;64.20;;;31.10;;
37903;SDS011;23738;50.422;18.758;2023-03-26T17:56:57;70.80;;;34.50;;
37903;SDS011;23738;50.422;18.758;2023-03-26T17:59:30;72.50;;;34.40;;
37903;SDS011;23738;50.422;18.758;2023-03-26T18:02:01;64.00;;;33.00;;
37903;SDS011;23738;50.422;18.758;2023-03-26T18:04:39;72.00;;;35.30;;
37903;SDS011;23738;50.422;18.758;2023-03-26T18:10:28;58.90;;;29.00;;
37903;SDS011;23738;50.422;18.758;2023-03-26T18:13:13;63.50;;;29.30;;
37903;SDS011;23738;50.422;18.758;2023-03-26T18:16:02;57.10;;;27.70;;
37903;SDS011;23738;50.422;18.758;2023-03-26T18:18:41;56.00;;;24.80;;
37903;SDS011;23738;50.422;18.758;2023-03-26T18:21:18;63.40;;;26.00;;
37903;SDS011;23738;50.422;18.758;2023-03-26T18:23:51;58.50;;;25.10;;
37903;SDS011;23738;50.422;18.758;2023-03-26T18:26:21;61.30;;;24.90;;
37903;SDS011;23738;50.422;18.758;2023-03-26T18:29:09;55.70;;;23.90;;
37903;SDS011;23738;50.422;18.758;2023-03-26T18:31:46;58.40;;;24.60;;
37903;SDS011;23738;50.422;18.758;2023-03-26T18:34:19;57.90;;;23.70;;
37903;SDS011;23738;50.422;18.758;2023-03-26T18:36:56;59.60;;;25.00;;
37903;SDS011;23738;50.422;18.758;2023-03-26T18:39:53;66.20;;;24.80;;
37903;SDS011;23738;50.422;18.758;2023-03-26T18:42:26;68.10;;;26.70;;
37903;SDS011;23738;50.422;18.758;2023-03-26T18:44:58;64.50;;;24.40;;
37903;SDS011;23738;50.422;18.758;2023-03-26T18:47:29;62.00;;;25.20;;
37903;SDS011;23738;50.422;18.758;2023-03-26T18:49:59;53.00;;;21.80;;
37903;SDS011;23738;50.422;18.758;2023-03-26T18:52:29;50.40;;;21.50;;
37903;SDS011;23738;50.422;18.758;2023-03-26T18:55:00;27.20;;;13.60;;
37903;SDS011;23738;50.422;18.758;2023-03-26T18:57:31;43.00;;;18.00;;
37903;SDS011;23738;50.422;18.758;2023-03-26T19:00:10;55.30;;;21.40;;
37903;SDS011;23738;50.422;18.758;2023-03-26T19:02:47;32.70;;;14.40;;
37903;SDS011;23738;50.422;18.758;2023-03-26T19:05:18;32.00;;;13.60;;
37903;SDS011;23738;50.422;18.758;2023-03-26T19:07:48;22.60;;;11.60;;
37903;SDS011;23738;50.422;18.758;2023-03-26T19:10:18;29.60;;;12.10;;
37903;SDS011;23738;50.422;18.758;2023-03-26T19:12:56;27.00;;;12.30;;
37903;SDS011;23738;50.422;18.758;2023-03-26T19:15:27;16.90;;;9.00;;
37903;SDS011;23738;50.422;18.758;2023-03-26T19:17:59;20.20;;;8.30;;
37903;SDS011;23738;50.422;18.758;2023-03-26T19:20:37;16.60;;;7.40;;
37903;SDS011;23738;50.422;18.758;2023-03-26T19:23:11;17.00;;;6.60;;
37903;SDS011;23738;50.422;18.758;2023-03-26T19:25:43;10.30;;;5.60;;
37903;SDS011;23738;50.422;18.758;2023-03-26T19:28:16;9.20;;;5.00;;
37903;SDS011;23738;50.422;18.758;2023-03-26T19:30:52;13.00;;;5.80;;
37903;SDS011;23738;50.422;18.758;2023-03-26T19:33:24;8.90;;;4.40;;
37903;SDS011;23738;50.422;18.758;2023-03-26T19:36:03;9.00;;;5.00;;
37903;SDS011;23738;50.422;18.758;2023-03-26T19:38:44;10.80;;;5.00;;
37903;SDS011;23738;50.422;18.758;2023-03-26T19:41:19;8.30;;;4.40;;
37903;SDS011;23738;50.422;18.758;2023-03-26T19:43:51;8.60;;;5.00;;
37903;SDS011;23738;50.422;18.758;2023-03-26T19:46:23;8.50;;;4.20;;
37903;SDS011;23738;50.422;18.758;2023-03-26T19:48:55;8.00;;;4.80;;
37903;SDS011;23738;50.422;18.758;2023-03-26T19:51:29;9.30;;;5.10;;
37903;SDS011;23738;50.422;18.758;2023-03-26T19:54:00;8.70;;;5.20;;
37903;SDS011;23738;50.422;18.758;2023-03-26T19:56:40;10.20;;;6.00;;
37903;SDS011;23738;50.422;18.758;2023-03-26T19:59:09;12.20;;;6.60;;
37903;SDS011;23738;50.422;18.758;2023-03-26T20:01:39;10.40;;;6.40;;
37903;SDS011;23738;50.422;18.758;2023-03-26T20:04:09;12.50;;;6.30;;
37903;SDS011;23738;50.422;18.758;2023-03-26T20:06:39;13.00;;;8.10;;
37903;SDS011;23738;50.422;18.758;2023-03-26T20:09:09;16.30;;;9.50;;
37903;SDS011;23738;50.422;18.758;2023-03-26T20:11:39;15.20;;;9.20;;
37903;SDS011;23738;50.422;18.758;2023-03-26T20:14:13;14.30;;;9.40;;
37903;SDS011;23738;50.422;18.758;2023-03-26T20:16:46;19.50;;;10.90;;
37903;SDS011;23738;50.422;18.758;2023-03-26T20:19:16;23.30;;;11.00;;
37903;SDS011;23738;50.422;18.758;2023-03-26T20:21:46;52.30;;;18.20;;
37903;SDS011;23738;50.422;18.758;2023-03-26T20:24:16;55.80;;;18.60;;
37903;SDS011;23738;50.422;18.758;2023-03-26T20:26:50;98.10;;;33.30;;
37903;SDS011;23738;50.422;18.758;2023-03-26T20:29:19;77.20;;;26.80;;
37903;SDS011;23738;50.422;18.758;2023-03-26T20:31:48;65.50;;;23.00;;
37903;SDS011;23738;50.422;18.758;2023-03-26T20:34:18;81.50;;;31.80;;
37903;SDS011;23738;50.422;18.758;2023-03-26T20:36:50;77.50;;;26.80;;
37903;SDS011;23738;50.422;18.758;2023-03-26T20:39:22;56.20;;;21.90;;
37903;SDS011;23738;50.422;18.758;2023-03-26T20:41:52;39.90;;;16.20;;
37903;SDS011;23738;50.422;18.758;2023-03-26T20:44:22;17.20;;;10.10;;
37903;SDS011;23738;50.422;18.758;2023-03-26T20:46:53;18.70;;;9.50;;
37903;SDS011;23738;50.422;18.758;2023-03-26T20:49:24;15.50;;;8.60;;
37903;SDS011;23738;50.422;18.758;2023-03-26T20:51:54;32.20;;;13.90;;
37903;SDS011;23738;50.422;18.758;2023-03-26T20:54:25;18.90;;;7.90;;
37903;SDS011;23738;50.422;18.758;2023-03-26T20:56:55;19.10;;;9.20;;
37903;SDS011;23738;50.422;18.758;2023-03-26T20:59:25;17.30;;;8.80;;
37903;SDS011;23738;50.422;18.758;2023-03-26T21:01:55;12.00;;;6.50;;
37903;SDS011;23738;50.422;18.758;2023-03-26T21:04:28;13.10;;;6.80;;
37903;SDS011;23738;50.422;18.758;2023-03-26T21:06:58;11.40;;;5.10;;